Terminal Aerodrome Forecast
Issued by NWS

Home | Current Version | Previous Version | Text Only | Print | Product List | Glossary On
Versions: 1 2 3 4 5 6 7 8 9 10 11 12 13 14 15 16 17 18 19 20 21 22 23
000
FTUS41 KRLX 221120
TAFCKB
TAF
KCKB 221120Z 2212/2312 00000KT P6SM SCT250
     FM221500 23007KT P6SM BKN250
     FM230200 20004KT 6SM -SHRA OVC060
     FM230400 20004KT 3SM -SHRA OVC030
     FM230800 21008KT P6SM VCSH OVC025=

USA.gov is the U.S. government's official web portal to all federal, state and local government web resources and services.